createdAt,value
2018-04-19T00:01:05.755Z,8.73
2018-04-19T00:03:33.193Z,7.33
2018-04-19T00:06:00.633Z,6.60
2018-04-19T00:08:28.856Z,6.63
2018-04-19T00:10:56.328Z,7.43
2018-04-19T00:13:23.753Z,8.97
2018-04-19T00:15:51.188Z,7.40
2018-04-19T00:18:18.625Z,9.10
2018-04-19T00:20:46.856Z,11.43
2018-04-19T00:23:14.312Z,5.10
2018-04-19T00:25:41.765Z,3.50
2018-04-19T00:28:09.226Z,7.30
2018-04-19T00:30:36.672Z,6.17
2018-04-19T00:33:04.108Z,7.00
2018-04-19T00:35:31.591Z,4.73
2018-04-19T00:37:59.040Z,3.40
2018-04-19T00:40:26.488Z,2.80
2018-04-19T00:42:53.958Z,4.47
2018-04-19T00:45:21.399Z,5.10
2018-04-19T00:47:48.857Z,6.13
2018-04-19T00:50:16.328Z,4.90
2018-04-19T00:52:55.428Z,11.17
2018-04-19T00:55:22.898Z,7.83
2018-04-19T00:57:50.351Z,7.20
2018-04-19T01:00:17.807Z,5.50
2018-04-19T01:02:45.267Z,4.47
2018-04-19T01:05:12.704Z,5.93
2018-04-19T01:07:40.180Z,4.27
2018-04-19T01:10:07.631Z,7.27
2018-04-19T01:12:35.087Z,6.97
2018-04-19T01:15:02.582Z,6.37
2018-04-19T01:17:30.028Z,4.40
2018-04-19T01:19:57.490Z,3.83
2018-04-19T01:22:24.944Z,8.03
2018-04-19T01:24:52.402Z,6.70
2018-04-19T01:27:19.864Z,5.87
2018-04-19T01:29:47.348Z,3.80
2018-04-19T01:32:14.800Z,8.17
2018-04-19T01:34:43.005Z,4.80
2018-04-19T01:37:10.476Z,4.77
2018-04-19T01:39:37.923Z,8.60
2018-04-19T01:42:05.373Z,11.37
2018-04-19T01:44:32.848Z,4.37
2018-04-19T01:47:00.294Z,7.50
2018-04-19T01:49:27.737Z,5.23
2018-04-19T01:51:55.201Z,4.47
2018-04-19T01:54:22.643Z,3.27
2018-04-19T01:56:50.083Z,5.57
2018-04-19T01:59:18.315Z,5.20
2018-04-19T02:01:45.755Z,4.83
2018-04-19T02:04:13.194Z,5.43
2018-04-19T02:06:40.643Z,7.10
2018-04-19T02:09:08.094Z,7.40
2018-04-19T02:11:35.557Z,4.17
2018-04-19T02:14:03.039Z,3.17
2018-04-19T02:16:30.507Z,3.03
2018-04-19T02:18:57.966Z,2.70
2018-04-19T02:21:25.414Z,2.30
2018-04-19T02:23:52.865Z,1.93
2018-04-19T02:26:20.328Z,1.63
2018-04-19T02:28:47.776Z,1.30
2018-04-19T02:31:15.274Z,1.20
2018-04-19T02:33:42.707Z,1.20
2018-04-19T02:36:10.945Z,1.60
2018-04-19T02:38:38.369Z,1.40
2018-04-19T02:41:05.845Z,4.80
2018-04-19T02:43:33.301Z,2.33
2018-04-19T02:46:00.725Z,1.70
2018-04-19T02:48:28.945Z,2.47
2018-04-19T02:50:56.411Z,1.50
2018-04-19T02:53:23.871Z,1.90
2018-04-19T02:55:51.333Z,1.27
2018-04-19T02:58:18.809Z,2.00
2018-04-19T03:00:47.018Z,2.90
2018-04-19T03:03:15.284Z,1.10
2018-04-19T03:05:42.761Z,1.07
2018-04-19T03:08:10.220Z,1.23
2018-04-19T03:10:37.690Z,2.30
2018-04-19T03:13:05.175Z,1.40
2018-04-19T03:15:32.626Z,1.40
2018-04-19T03:18:00.072Z,1.93
2018-04-19T03:20:27.560Z,1.03
2018-04-19T03:22:55.763Z,1.10
2018-04-19T03:25:23.205Z,1.47
2018-04-19T03:27:50.673Z,1.30
2018-04-19T03:30:18.117Z,3.10
2018-04-19T03:32:45.569Z,0.93
2018-04-19T03:35:13.029Z,1.67
2018-04-19T03:37:40.464Z,2.77
2018-04-19T03:40:08.700Z,1.23
2018-04-19T03:42:36.147Z,1.30
2018-04-19T03:45:03.581Z,0.80
2018-04-19T03:47:31.063Z,1.77
2018-04-19T03:49:58.510Z,1.57
2018-04-19T03:52:25.955Z,1.60
2018-04-19T03:54:53.417Z,1.10
2018-04-19T03:57:20.865Z,1.63
2018-04-19T03:59:48.321Z,1.40
2018-04-19T04:02:15.790Z,1.70
2018-04-19T04:04:43.229Z,1.30
2018-04-19T04:07:10.702Z,0.97
2018-04-19T04:09:38.189Z,1.13
2018-04-19T04:12:05.633Z,1.23
2018-04-19T04:14:33.716Z,1.50
2018-04-19T04:17:13.666Z,2.40
2018-04-19T04:19:53.838Z,2.10
2018-04-19T04:22:33.949Z,2.30
2018-04-19T04:25:01.413Z,1.50
2018-04-19T04:27:28.848Z,1.80
2018-04-19T04:29:56.300Z,4.07
2018-04-19T04:32:23.787Z,1.50
2018-04-19T04:34:53.140Z,1.80
2018-04-19T04:37:24.387Z,1.13
2018-04-19T04:39:51.832Z,2.07
2018-04-19T04:42:19.282Z,1.53
2018-04-19T04:44:46.737Z,1.10
2018-04-19T04:47:14.193Z,1.47
2018-04-19T04:49:41.641Z,1.17
2018-04-19T04:52:09.117Z,2.07
2018-04-19T04:54:36.550Z,1.83
2018-04-19T04:57:03.988Z,1.57
2018-04-19T04:59:32.219Z,1.20
2018-04-19T05:01:59.676Z,1.20
2018-04-19T05:04:27.125Z,1.47
2018-04-19T05:06:54.565Z,1.07
2018-04-19T05:09:22.026Z,0.90
2018-04-19T05:11:49.464Z,1.40
2018-04-19T05:14:16.909Z,1.50
2018-04-19T05:16:44.381Z,1.50
2018-04-19T05:19:11.823Z,1.83
2018-04-19T05:21:39.309Z,1.90
2018-04-19T05:24:06.805Z,1.87
2018-04-19T05:26:34.244Z,1.40
2018-04-19T05:29:02.074Z,1.53
2018-04-19T05:31:29.530Z,0.90
2018-04-19T05:33:56.977Z,1.30
2018-04-19T05:36:25.233Z,1.03
2018-04-19T05:38:53.468Z,1.37
2018-04-19T05:41:20.920Z,2.30
2018-04-19T05:43:48.365Z,1.20
2018-04-19T05:46:15.822Z,1.27
2018-04-19T05:48:43.329Z,1.80
2018-04-19T05:51:11.536Z,1.23
2018-04-19T05:53:38.980Z,1.10
2018-04-19T05:56:06.448Z,2.43
2018-04-19T05:58:33.901Z,1.23
2018-04-19T06:01:01.343Z,1.77
2018-04-19T06:03:28.812Z,1.23
2018-04-19T06:05:56.261Z,1.30
2018-04-19T06:08:23.691Z,1.23
2018-04-19T06:10:52.130Z,1.03
2018-04-19T06:13:19.591Z,2.30
2018-04-19T06:15:47.026Z,1.23
2018-04-19T06:18:14.488Z,0.80
2018-04-19T06:20:41.924Z,0.60
2018-04-19T06:23:09.379Z,1.30
2018-04-19T06:25:36.845Z,1.50
2018-04-19T06:28:04.301Z,1.10
2018-04-19T06:30:31.756Z,1.10
2018-04-19T06:32:59.226Z,0.97
2018-04-19T06:35:26.680Z,1.10
2018-04-19T06:37:54.145Z,1.27
2018-04-19T06:40:21.586Z,0.70
2018-04-19T06:42:49.036Z,1.10
2018-04-19T06:45:16.508Z,0.80
2018-04-19T06:47:44.710Z,1.10
2018-04-19T06:50:12.920Z,1.07
2018-04-19T06:52:40.979Z,0.87
2018-04-19T06:55:08.413Z,1.07
2018-04-19T06:57:36.629Z,1.60
2018-04-19T07:00:04.115Z,1.07
2018-04-19T07:02:31.566Z,2.80
2018-04-19T07:04:59.016Z,1.30
2018-04-19T07:07:26.482Z,1.10
2018-04-19T07:09:53.930Z,1.13
2018-04-19T07:12:21.377Z,1.03
2018-04-19T07:14:48.845Z,1.53
2018-04-19T07:17:16.287Z,0.80
2018-04-19T07:19:43.780Z,1.03
2018-04-19T07:22:12.001Z,1.00
2018-04-19T07:24:39.457Z,2.00
2018-04-19T07:27:06.932Z,0.80
2018-04-19T07:29:34.377Z,1.10
2018-04-19T07:32:01.833Z,1.07
2018-04-19T07:34:29.301Z,0.70
2018-04-19T07:36:56.746Z,0.77
2018-04-19T07:39:24.193Z,0.70
2018-04-19T07:41:51.662Z,0.70
2018-04-19T07:44:19.869Z,1.10
2018-04-19T07:46:47.340Z,1.10
2018-04-19T07:49:15.557Z,0.87
2018-04-19T07:51:43.005Z,0.70
2018-04-19T07:54:10.470Z,0.70
2018-04-19T07:56:37.923Z,0.70
2018-04-19T07:59:05.375Z,1.53
2018-04-19T08:01:32.840Z,1.10
2018-04-19T08:04:00.284Z,0.93
2018-04-19T08:06:27.759Z,1.10
2018-04-19T08:08:55.222Z,1.20
2018-04-19T08:11:22.732Z,1.30
2018-04-19T08:13:50.148Z,2.43
2018-04-19T08:16:17.596Z,0.80
2018-04-19T08:18:46.052Z,0.73
2018-04-19T08:21:13.517Z,1.03
2018-04-19T08:23:40.972Z,1.77
2018-04-19T08:26:08.420Z,1.83
2018-04-19T08:28:35.884Z,0.70
2018-04-19T08:31:03.325Z,0.60
2018-04-19T08:33:30.817Z,0.90
2018-04-19T08:35:58.264Z,0.70
2018-04-19T08:38:25.711Z,1.83
2018-04-19T08:40:53.195Z,0.80
2018-04-19T08:43:20.644Z,3.43
2018-04-19T08:45:48.101Z,1.10
2018-04-19T08:48:15.546Z,0.97
2018-04-19T08:50:42.998Z,2.07
2018-04-19T08:53:10.457Z,3.33
2018-04-19T08:55:37.925Z,1.70
2018-04-19T08:58:05.380Z,2.67
2018-04-19T09:00:32.820Z,2.30
2018-04-19T09:03:00.297Z,2.17
2018-04-19T09:05:28.516Z,5.60
2018-04-19T09:07:55.989Z,2.93
2018-04-19T09:10:24.186Z,3.03
2018-04-19T09:12:51.635Z,2.60
2018-04-19T09:15:19.069Z,3.43
2018-04-19T09:17:46.527Z,2.63
2018-04-19T09:20:13.975Z,2.23
2018-04-19T09:22:41.422Z,6.87
2018-04-19T09:25:08.899Z,4.23
2018-04-19T09:27:36.352Z,12.10
2018-04-19T09:30:04.500Z,1.90
2018-04-19T09:32:31.990Z,2.80
2018-04-19T09:34:59.465Z,1.40
2018-04-19T09:37:26.921Z,4.63
2018-04-19T09:39:54.383Z,5.20
2018-04-19T09:42:21.820Z,2.17
2018-04-19T09:44:49.256Z,2.00
2018-04-19T09:47:17.487Z,2.73
2018-04-19T09:49:44.935Z,3.77
2018-04-19T09:52:13.158Z,0.93
2018-04-19T09:54:40.638Z,1.23
2018-04-19T09:57:08.084Z,2.07
2018-04-19T09:59:35.529Z,1.97
2018-04-19T10:02:03.772Z,1.80
2018-04-19T10:04:33.667Z,1.77
2018-04-19T10:07:01.884Z,1.40
2018-04-19T10:09:29.345Z,1.10
2018-04-19T10:11:56.797Z,0.87
2018-04-19T10:14:24.245Z,1.00
2018-04-19T10:16:51.708Z,1.20
2018-04-19T10:19:19.150Z,2.97
2018-04-19T10:21:46.592Z,0.80
2018-04-19T10:24:14.059Z,0.70
2018-04-19T10:26:41.531Z,0.87
2018-04-19T10:29:08.974Z,0.87
2018-04-19T10:31:36.423Z,0.80
2018-04-19T10:34:03.885Z,0.80
2018-04-19T10:36:31.330Z,4.60
2018-04-19T10:38:58.770Z,2.73
2018-04-19T10:41:26.238Z,4.97
2018-04-19T10:44:00.695Z,2.63
2018-04-19T10:46:29.051Z,2.30
2018-04-19T10:48:56.500Z,2.20
2018-04-19T10:51:23.939Z,1.90
2018-04-19T10:53:51.417Z,1.40
2018-04-19T10:56:18.853Z,1.17
2018-04-19T10:58:46.292Z,1.40
2018-04-19T11:01:14.532Z,2.80
2018-04-19T11:03:42.604Z,1.97
2018-04-19T11:06:10.054Z,1.77
2018-04-19T11:08:37.557Z,1.40
2018-04-19T11:11:04.960Z,1.50
2018-04-19T11:13:32.419Z,3.20
2018-04-19T11:15:59.915Z,2.57
2018-04-19T11:18:27.322Z,1.60
2018-04-19T11:20:54.774Z,1.47
2018-04-19T11:23:22.242Z,2.10
2018-04-19T11:25:49.696Z,1.70
2018-04-19T11:28:17.155Z,2.30
2018-04-19T11:30:44.613Z,1.80
2018-04-19T11:33:12.076Z,1.57
2018-04-19T11:35:39.517Z,2.03
2018-04-19T11:38:07.917Z,1.40
2018-04-19T11:40:35.385Z,1.20
2018-04-19T11:43:03.615Z,9.50
2018-04-19T11:45:31.064Z,1.83
2018-04-19T11:47:58.572Z,4.20
2018-04-19T11:50:26.907Z,1.50
2018-04-19T11:52:54.362Z,2.53
2018-04-19T11:55:21.844Z,1.30
2018-04-19T11:57:49.292Z,1.10
2018-04-19T12:00:16.737Z,1.53
2018-04-19T12:02:44.207Z,5.07
2018-04-19T12:05:11.700Z,1.50
2018-04-19T12:07:39.159Z,4.00
2018-04-19T12:10:07.368Z,1.63
2018-04-19T12:12:34.820Z,2.30
2018-04-19T12:15:02.274Z,2.10
2018-04-19T12:17:29.728Z,1.03
2018-04-19T12:19:57.181Z,1.57
2018-04-19T12:22:24.628Z,1.20
2018-04-19T12:24:52.102Z,1.13
2018-04-19T12:27:19.542Z,1.17
2018-04-19T12:29:46.994Z,1.47
2018-04-19T12:32:14.470Z,1.00
2018-04-19T12:34:41.908Z,1.30
2018-04-19T12:37:09.354Z,1.20
2018-04-19T12:39:36.805Z,1.23
2018-04-19T12:42:04.278Z,1.50
2018-04-19T12:44:31.729Z,1.60
2018-04-19T12:46:59.460Z,2.30
2018-04-19T12:49:27.701Z,1.67
2018-04-19T12:51:55.153Z,2.33
2018-04-19T12:54:22.614Z,4.07
2018-04-19T12:56:50.081Z,1.80
2018-04-19T12:59:17.518Z,1.30
2018-04-19T13:01:44.996Z,2.60
2018-04-19T13:04:12.461Z,1.70
2018-04-19T13:06:40.686Z,1.67
2018-04-19T13:09:08.137Z,1.53
2018-04-19T13:11:35.621Z,2.70
2018-04-19T13:14:03.055Z,2.00
2018-04-19T13:16:30.495Z,1.00
2018-04-19T13:18:57.968Z,1.70
2018-04-19T13:21:25.419Z,0.90
2018-04-19T13:23:52.869Z,1.10
2018-04-19T13:26:20.326Z,1.30
2018-04-19T13:28:47.767Z,2.30
2018-04-19T13:31:15.205Z,1.17
2018-04-19T13:33:42.672Z,2.80
2018-04-19T13:36:10.139Z,1.40
2018-04-19T13:38:37.578Z,2.00
2018-04-19T13:41:05.025Z,0.73
2018-04-19T13:43:33.246Z,1.50
2018-04-19T13:46:00.736Z,0.60
2018-04-19T13:48:28.123Z,0.90
2018-04-19T13:50:55.593Z,1.90
2018-04-19T13:53:23.032Z,0.77
2018-04-19T13:55:50.502Z,1.10
2018-04-19T13:58:17.940Z,1.40
2018-04-19T14:00:45.386Z,1.40
2018-04-19T14:03:13.610Z,1.03
2018-04-19T14:05:41.054Z,2.87
2018-04-19T14:08:08.487Z,0.90
2018-04-19T14:10:35.950Z,4.10
2018-04-19T14:13:03.395Z,1.87
2018-04-19T14:15:30.836Z,2.20
2018-04-19T14:17:59.072Z,2.50
2018-04-19T14:20:26.508Z,4.33
2018-04-19T14:22:53.952Z,2.80
2018-04-19T14:25:21.435Z,3.00
2018-04-19T14:27:48.861Z,1.77
2018-04-19T14:30:16.299Z,0.97
2018-04-19T14:32:43.771Z,0.90
2018-04-19T14:35:11.223Z,0.90
2018-04-19T14:37:38.684Z,1.10
2018-04-19T14:40:06.124Z,2.00
2018-04-19T14:42:33.568Z,2.33
2018-04-19T14:45:01.058Z,1.40
2018-04-19T14:47:28.501Z,0.93
2018-04-19T14:49:55.941Z,1.13
2018-04-19T14:52:23.417Z,1.30
2018-04-19T14:54:50.860Z,1.70
2018-04-19T14:57:18.300Z,1.20
2018-04-19T14:59:46.526Z,1.63
2018-04-19T15:02:14.736Z,1.40
2018-04-19T15:04:42.965Z,7.60
2018-04-19T15:07:10.427Z,1.50
2018-04-19T15:09:37.863Z,1.00
2018-04-19T15:12:05.326Z,0.73
2018-04-19T15:14:32.781Z,0.73
2018-04-19T15:17:00.309Z,1.43
2018-04-19T15:19:27.777Z,0.70
2018-04-19T15:21:55.238Z,1.03
2018-04-19T15:24:22.707Z,1.37
2018-04-19T15:26:50.151Z,1.10
2018-04-19T15:29:17.620Z,1.10
2018-04-19T15:31:45.136Z,1.13
2018-04-19T15:34:12.540Z,0.90
2018-04-19T15:36:40.024Z,0.83
2018-04-19T15:39:08.269Z,2.10
2018-04-19T15:41:35.798Z,0.50
2018-04-19T15:44:03.198Z,1.07
2018-04-19T15:46:30.649Z,0.80
2018-04-19T15:48:58.115Z,2.23
2018-04-19T15:51:25.561Z,0.90
2018-04-19T15:53:53.008Z,1.60
2018-04-19T15:56:20.478Z,0.60
2018-04-19T15:58:47.925Z,1.03
2018-04-19T16:01:15.373Z,0.50
2018-04-19T16:03:42.844Z,0.60
2018-04-19T16:06:10.282Z,0.50
2018-04-19T16:08:37.716Z,0.77
2018-04-19T16:11:05.189Z,0.70
2018-04-19T16:13:32.632Z,0.70
2018-04-19T16:16:00.101Z,1.07
2018-04-19T16:18:27.540Z,1.67
2018-04-19T16:20:54.981Z,0.50
2018-04-19T16:23:22.456Z,1.43
2018-04-19T16:25:49.892Z,1.27
2018-04-19T16:28:17.395Z,0.97
2018-04-19T16:30:44.816Z,1.17
2018-04-19T16:33:12.251Z,0.60
2018-04-19T16:35:39.688Z,1.10
2018-04-19T16:38:07.933Z,0.60
2018-04-19T16:40:35.378Z,0.60
2018-04-19T16:43:02.824Z,1.00
2018-04-19T16:45:30.313Z,1.00
2018-04-19T16:47:57.748Z,0.90
2018-04-19T16:50:25.188Z,1.80
2018-04-19T16:52:52.650Z,1.10
2018-04-19T16:55:20.093Z,2.10
2018-04-19T16:57:47.544Z,1.97
2018-04-19T17:00:15.000Z,1.07
2018-04-19T17:02:42.461Z,1.77
2018-04-19T17:05:09.909Z,1.37
2018-04-19T17:07:37.359Z,1.30
2018-04-19T17:10:04.819Z,1.87
2018-04-19T17:12:32.282Z,1.53
2018-04-19T17:14:59.725Z,3.23
2018-04-19T17:17:27.189Z,1.27
2018-04-19T17:19:54.628Z,3.80
2018-04-19T17:22:22.072Z,1.77
2018-04-19T17:24:49.557Z,2.50
2018-04-19T17:27:17.006Z,2.33
2018-04-19T17:29:44.440Z,1.63
2018-04-19T17:32:11.933Z,1.30
2018-04-19T17:34:39.365Z,4.40
2018-04-19T17:37:06.810Z,2.53
2018-04-19T17:39:34.281Z,5.00
2018-04-19T17:42:01.712Z,1.40
2018-04-19T17:44:29.929Z,1.50
2018-04-19T17:46:57.393Z,1.00
2018-04-19T17:49:24.857Z,1.07
2018-04-19T17:51:52.292Z,0.93
2018-04-19T17:54:19.764Z,1.50
2018-04-19T17:56:47.200Z,1.23
2018-04-19T17:59:14.655Z,0.90
2018-04-19T18:01:42.126Z,1.10
2018-04-19T18:04:09.575Z,1.17
2018-04-19T18:06:37.012Z,1.90
2018-04-19T18:09:04.509Z,0.97
2018-04-19T18:11:31.953Z,1.00
2018-04-19T18:13:59.397Z,1.10
2018-04-19T18:16:26.862Z,1.30
2018-04-19T18:18:54.529Z,0.80
2018-04-19T18:21:21.970Z,1.07
2018-04-19T18:23:49.473Z,1.43
2018-04-19T18:26:16.910Z,0.80
2018-04-19T18:28:44.368Z,3.13
2018-04-19T18:31:11.849Z,1.47
2018-04-19T18:33:40.055Z,1.43
2018-04-19T18:36:07.496Z,1.67
2018-04-19T18:38:34.988Z,1.07
2018-04-19T18:41:02.454Z,1.57
2018-04-19T18:43:29.893Z,1.30
2018-04-19T18:45:57.376Z,1.07
2018-04-19T18:48:24.840Z,1.30
2018-04-19T18:50:52.282Z,4.90
2018-04-19T18:53:19.760Z,1.27
2018-04-19T18:55:47.978Z,2.20
2018-04-19T18:58:15.427Z,1.20
2018-04-19T19:00:42.897Z,2.20
2018-04-19T19:03:10.342Z,1.00
2018-04-19T19:05:37.784Z,1.33
2018-04-19T19:08:05.272Z,5.20
2018-04-19T19:10:32.729Z,1.23
2018-04-19T19:13:00.187Z,1.17
2018-04-19T19:18:57.946Z,2.33
2018-04-19T19:21:25.384Z,2.50
2018-04-19T19:23:52.874Z,1.33
2018-04-19T19:26:21.069Z,1.03
2018-04-19T19:28:48.515Z,1.03
2018-04-19T19:31:15.965Z,1.27
2018-04-19T19:33:43.449Z,1.83
2018-04-19T19:36:10.904Z,1.00
2018-04-19T19:38:38.369Z,1.43
2018-04-19T19:41:06.593Z,3.00
2018-04-19T19:43:34.045Z,1.30
2018-04-19T19:46:01.527Z,3.27
2018-04-19T19:48:28.968Z,1.40
2018-04-19T19:50:56.408Z,1.30
2018-04-19T19:53:23.897Z,1.03
2018-04-19T19:55:51.345Z,1.00
2018-04-19T19:58:18.777Z,1.03
2018-04-19T20:00:46.255Z,2.00
2018-04-19T20:03:13.688Z,2.00
2018-04-19T20:05:41.177Z,1.63
2018-04-19T20:08:08.688Z,1.43
2018-04-19T20:10:36.130Z,2.47
2018-04-19T20:13:04.337Z,1.90
2018-04-19T20:15:31.805Z,1.90
2018-04-19T20:17:59.238Z,1.50
2018-04-19T20:20:26.721Z,2.90
2018-04-19T20:22:54.176Z,1.43
2018-04-19T20:25:21.625Z,2.27
2018-04-19T20:27:49.102Z,0.93
2018-04-19T20:30:16.569Z,1.60
2018-04-19T20:32:44.006Z,2.97
2018-04-19T20:35:11.483Z,4.60
2018-04-19T20:37:38.932Z,2.50
2018-04-19T20:40:06.360Z,1.60
2018-04-19T20:42:33.851Z,1.80
2018-04-19T20:45:01.292Z,2.13
2018-04-19T20:47:28.750Z,1.43
2018-04-19T20:49:56.237Z,1.10
2018-04-19T20:52:24.449Z,2.80
2018-04-19T20:54:51.901Z,3.13
2018-04-19T20:57:19.369Z,3.50
2018-04-19T20:59:46.818Z,2.37
2018-04-19T21:02:14.255Z,2.00
2018-04-19T21:04:42.511Z,3.57
2018-04-19T21:07:10.718Z,3.33
2018-04-19T21:09:38.159Z,2.57
2018-04-19T21:12:05.620Z,2.00
2018-04-19T21:14:33.067Z,2.20
2018-04-19T21:17:00.534Z,5.10
2018-04-19T21:19:27.971Z,1.90
2018-04-19T21:21:55.416Z,1.87
2018-04-19T21:24:22.904Z,1.70
2018-04-19T21:26:50.330Z,1.60
2018-04-19T21:29:17.784Z,4.50
2018-04-19T21:31:46.028Z,1.90
2018-04-19T21:34:13.474Z,5.37
2018-04-19T21:36:40.913Z,3.57
2018-04-19T21:39:08.429Z,6.33
2018-04-19T21:41:35.877Z,3.20
2018-04-19T21:44:03.327Z,2.20
2018-04-19T21:46:31.562Z,2.10
2018-04-19T21:48:59.000Z,1.23
2018-04-19T21:51:26.558Z,4.20
2018-04-19T21:53:54.016Z,1.50
2018-04-19T21:56:21.470Z,1.50
2018-04-19T21:58:48.938Z,3.00
2018-04-19T22:01:17.190Z,2.80
2018-04-19T22:03:44.631Z,1.63
2018-04-19T22:06:12.088Z,1.40
2018-04-19T22:08:39.561Z,1.23
2018-04-19T22:11:07.773Z,1.20
2018-04-19T22:13:35.219Z,1.57
2018-04-19T22:16:02.698Z,4.80
2018-04-19T22:18:30.914Z,7.20
2018-04-19T22:20:58.352Z,5.63
2018-04-19T22:23:25.816Z,1.97
2018-04-19T22:25:53.264Z,2.20
2018-04-19T22:28:20.707Z,1.27
2018-04-19T22:30:48.933Z,2.33
2018-04-19T22:33:16.401Z,1.70
2018-04-19T22:35:43.840Z,0.93
2018-04-19T22:38:11.284Z,0.87
2018-04-19T22:40:38.764Z,2.43
2018-04-19T22:43:06.743Z,1.27
2018-04-19T22:45:34.193Z,1.37
2018-04-19T22:48:01.667Z,1.40
2018-04-19T22:50:29.119Z,2.23
2018-04-19T22:52:56.586Z,2.20
2018-04-19T22:55:24.828Z,1.53
2018-04-19T22:57:52.277Z,1.13
2018-04-19T23:00:19.708Z,2.50
2018-04-19T23:02:47.187Z,0.80
2018-04-19T23:05:14.636Z,1.90
2018-04-19T23:07:42.860Z,1.00
2018-04-19T23:10:11.078Z,1.33
2018-04-19T23:12:38.549Z,2.13
2018-04-19T23:15:06.013Z,0.97
2018-04-19T23:17:33.532Z,2.13
2018-04-19T23:20:00.945Z,1.40
2018-04-19T23:22:34.187Z,1.63
2018-04-19T23:25:01.639Z,0.90
2018-04-19T23:27:29.100Z,1.97
2018-04-19T23:29:56.555Z,1.53
2018-04-19T23:32:24.026Z,2.10
2018-04-19T23:34:51.493Z,2.00
2018-04-19T23:37:18.938Z,2.00
2018-04-19T23:39:46.409Z,1.23
2018-04-19T23:42:13.923Z,1.40
2018-04-19T23:44:41.390Z,2.23
2018-04-19T23:47:08.876Z,2.17
2018-04-19T23:49:36.321Z,2.00
2018-04-19T23:52:03.787Z,2.00
2018-04-19T23:54:31.240Z,1.00
2018-04-19T23:56:58.713Z,1.00
2018-04-19T23:59:26.153Z,0.80
